sensor_id;sensor_type;location;lat;lon;timestamp;P1;durP1;ratioP1;P2;durP2;ratioP2
78614;SDS011;67937;52.488;20.952;2023-09-08T00:02:04;4.50;;;4.00;;
78614;SDS011;67937;52.488;20.952;2023-09-08T00:04:31;5.70;;;4.40;;
78614;SDS011;67937;52.488;20.952;2023-09-08T00:06:59;7.00;;;4.40;;
78614;SDS011;67937;52.488;20.952;2023-09-08T00:09:26;5.60;;;4.50;;
78614;SDS011;67937;52.488;20.952;2023-09-08T00:11:53;5.20;;;4.60;;
78614;SDS011;67937;52.488;20.952;2023-09-08T00:14:20;5.70;;;4.60;;
78614;SDS011;67937;52.488;20.952;2023-09-08T00:16:47;4.70;;;4.20;;
78614;SDS011;67937;52.488;20.952;2023-09-08T00:19:14;7.50;;;5.00;;
78614;SDS011;67937;52.488;20.952;2023-09-08T00:21:40;7.30;;;4.30;;
78614;SDS011;67937;52.488;20.952;2023-09-08T00:24:08;4.90;;;4.40;;
78614;SDS011;67937;52.488;20.952;2023-09-08T00:26:36;7.30;;;4.60;;
78614;SDS011;67937;52.488;20.952;2023-09-08T00:29:02;4.40;;;4.00;;
78614;SDS011;67937;52.488;20.952;2023-09-08T00:31:29;6.40;;;4.70;;
78614;SDS011;67937;52.488;20.952;2023-09-08T00:33:55;8.40;;;4.70;;
78614;SDS011;67937;52.488;20.952;2023-09-08T00:36:22;6.60;;;4.70;;
78614;SDS011;67937;52.488;20.952;2023-09-08T00:41:36;4.70;;;4.20;;
78614;SDS011;67937;52.488;20.952;2023-09-08T00:44:02;6.50;;;4.90;;
78614;SDS011;67937;52.488;20.952;2023-09-08T00:46:30;21.40;;;5.40;;
78614;SDS011;67937;52.488;20.952;2023-09-08T00:48:57;5.20;;;4.50;;
78614;SDS011;67937;52.488;20.952;2023-09-08T00:51:23;6.00;;;4.00;;
78614;SDS011;67937;52.488;20.952;2023-09-08T00:53:50;6.80;;;4.50;;
78614;SDS011;67937;52.488;20.952;2023-09-08T00:56:17;5.40;;;4.50;;
78614;SDS011;67937;52.488;20.952;2023-09-08T00:58:44;4.60;;;4.20;;
78614;SDS011;67937;52.488;20.952;2023-09-08T01:01:10;6.40;;;4.20;;
78614;SDS011;67937;52.488;20.952;2023-09-08T01:03:37;5.40;;;4.60;;
78614;SDS011;67937;52.488;20.952;2023-09-08T01:06:04;5.10;;;4.00;;
78614;SDS011;67937;52.488;20.952;2023-09-08T01:08:31;6.50;;;4.30;;
78614;SDS011;67937;52.488;20.952;2023-09-08T01:11:00;7.50;;;5.00;;
78614;SDS011;67937;52.488;20.952;2023-09-08T01:13:27;4.60;;;4.10;;
78614;SDS011;67937;52.488;20.952;2023-09-08T01:15:54;5.90;;;4.10;;
78614;SDS011;67937;52.488;20.952;2023-09-08T01:18:21;6.00;;;4.30;;
78614;SDS011;67937;52.488;20.952;2023-09-08T01:24:11;4.80;;;4.20;;
78614;SDS011;67937;52.488;20.952;2023-09-08T01:26:26;6.70;;;4.20;;
78614;SDS011;67937;52.488;20.952;2023-09-08T01:28:57;4.90;;;4.50;;
78614;SDS011;67937;52.488;20.952;2023-09-08T01:31:26;4.80;;;4.10;;
78614;SDS011;67937;52.488;20.952;2023-09-08T01:33:52;7.80;;;4.50;;
78614;SDS011;67937;52.488;20.952;2023-09-08T01:36:19;4.40;;;4.00;;
78614;SDS011;67937;52.488;20.952;2023-09-08T01:38:46;5.40;;;4.70;;
78614;SDS011;67937;52.488;20.952;2023-09-08T01:41:12;6.00;;;4.70;;
78614;SDS011;67937;52.488;20.952;2023-09-08T01:43:39;4.60;;;4.20;;
78614;SDS011;67937;52.488;20.952;2023-09-08T01:46:06;4.80;;;4.10;;
78614;SDS011;67937;52.488;20.952;2023-09-08T01:48:32;4.80;;;4.10;;
78614;SDS011;67937;52.488;20.952;2023-09-08T01:50:59;5.60;;;4.40;;
78614;SDS011;67937;52.488;20.952;2023-09-08T01:53:26;5.80;;;5.10;;
78614;SDS011;67937;52.488;20.952;2023-09-08T01:55:52;5.50;;;4.70;;
78614;SDS011;67937;52.488;20.952;2023-09-08T01:58:19;5.80;;;4.90;;
78614;SDS011;67937;52.488;20.952;2023-09-08T02:00:49;6.70;;;4.50;;
78614;SDS011;67937;52.488;20.952;2023-09-08T02:03:17;5.60;;;5.00;;
78614;SDS011;67937;52.488;20.952;2023-09-08T02:05:44;5.20;;;4.10;;
78614;SDS011;67937;52.488;20.952;2023-09-08T02:08:11;5.00;;;4.20;;
78614;SDS011;67937;52.488;20.952;2023-09-08T02:10:41;5.30;;;4.70;;
78614;SDS011;67937;52.488;20.952;2023-09-08T02:13:07;6.30;;;4.40;;
78614;SDS011;67937;52.488;20.952;2023-09-08T02:15:34;6.10;;;4.70;;
78614;SDS011;67937;52.488;20.952;2023-09-08T02:18:02;6.10;;;4.60;;
78614;SDS011;67937;52.488;20.952;2023-09-08T02:20:29;6.60;;;4.90;;
78614;SDS011;67937;52.488;20.952;2023-09-08T02:22:56;5.40;;;4.20;;
78614;SDS011;67937;52.488;20.952;2023-09-08T02:25:23;5.50;;;4.30;;
78614;SDS011;67937;52.488;20.952;2023-09-08T02:27:49;5.20;;;4.40;;
78614;SDS011;67937;52.488;20.952;2023-09-08T02:30:16;4.70;;;4.30;;
78614;SDS011;67937;52.488;20.952;2023-09-08T02:32:43;7.30;;;4.80;;
78614;SDS011;67937;52.488;20.952;2023-09-08T02:35:09;4.70;;;4.30;;
78614;SDS011;67937;52.488;20.952;2023-09-08T02:37:36;6.10;;;4.60;;
78614;SDS011;67937;52.488;20.952;2023-09-08T02:40:03;5.70;;;4.50;;
78614;SDS011;67937;52.488;20.952;2023-09-08T02:42:31;5.70;;;4.10;;
78614;SDS011;67937;52.488;20.952;2023-09-08T02:44:58;5.70;;;4.50;;
78614;SDS011;67937;52.488;20.952;2023-09-08T02:47:24;8.90;;;4.70;;
78614;SDS011;67937;52.488;20.952;2023-09-08T02:49:51;4.90;;;4.00;;
78614;SDS011;67937;52.488;20.952;2023-09-08T02:52:18;5.30;;;4.80;;
78614;SDS011;67937;52.488;20.952;2023-09-08T02:54:45;5.80;;;4.90;;
78614;SDS011;67937;52.488;20.952;2023-09-08T02:57:12;6.30;;;4.40;;
78614;SDS011;67937;52.488;20.952;2023-09-08T02:59:38;6.40;;;5.50;;
78614;SDS011;67937;52.488;20.952;2023-09-08T03:02:05;5.80;;;5.20;;
78614;SDS011;67937;52.488;20.952;2023-09-08T03:04:31;6.50;;;4.70;;
78614;SDS011;67937;52.488;20.952;2023-09-08T03:06:58;6.00;;;4.90;;
78614;SDS011;67937;52.488;20.952;2023-09-08T03:09:24;5.40;;;4.90;;
78614;SDS011;67937;52.488;20.952;2023-09-08T03:11:51;5.40;;;4.30;;
78614;SDS011;67937;52.488;20.952;2023-09-08T03:14:18;6.30;;;4.50;;
78614;SDS011;67937;52.488;20.952;2023-09-08T03:16:44;8.20;;;5.00;;
78614;SDS011;67937;52.488;20.952;2023-09-08T03:19:11;7.00;;;4.80;;
78614;SDS011;67937;52.488;20.952;2023-09-08T03:21:37;5.40;;;4.70;;
78614;SDS011;67937;52.488;20.952;2023-09-08T03:24:04;7.30;;;4.70;;
78614;SDS011;67937;52.488;20.952;2023-09-08T03:26:31;5.30;;;4.60;;
78614;SDS011;67937;52.488;20.952;2023-09-08T03:28:58;6.60;;;5.10;;
78614;SDS011;67937;52.488;20.952;2023-09-08T03:31:25;5.80;;;4.50;;
78614;SDS011;67937;52.488;20.952;2023-09-08T03:33:52;5.90;;;4.60;;
78614;SDS011;67937;52.488;20.952;2023-09-08T03:36:19;7.60;;;5.00;;
78614;SDS011;67937;52.488;20.952;2023-09-08T03:38:46;9.50;;;5.60;;
78614;SDS011;67937;52.488;20.952;2023-09-08T03:41:12;7.70;;;4.80;;
78614;SDS011;67937;52.488;20.952;2023-09-08T03:43:39;6.80;;;5.70;;
78614;SDS011;67937;52.488;20.952;2023-09-08T03:46:06;10.00;;;4.40;;
78614;SDS011;67937;52.488;20.952;2023-09-08T03:48:32;5.90;;;5.30;;
78614;SDS011;67937;52.488;20.952;2023-09-08T03:50:59;5.00;;;4.00;;
78614;SDS011;67937;52.488;20.952;2023-09-08T03:53:26;8.50;;;4.80;;
78614;SDS011;67937;52.488;20.952;2023-09-08T03:55:52;5.40;;;4.50;;
78614;SDS011;67937;52.488;20.952;2023-09-08T03:58:19;7.00;;;5.10;;
78614;SDS011;67937;52.488;20.952;2023-09-08T04:00:46;5.00;;;4.50;;
78614;SDS011;67937;52.488;20.952;2023-09-08T04:03:12;7.60;;;4.80;;
78614;SDS011;67937;52.488;20.952;2023-09-08T04:05:39;5.30;;;4.60;;
78614;SDS011;67937;52.488;20.952;2023-09-08T04:08:06;6.90;;;4.90;;
78614;SDS011;67937;52.488;20.952;2023-09-08T04:10:32;5.90;;;5.10;;
78614;SDS011;67937;52.488;20.952;2023-09-08T04:12:59;8.10;;;5.00;;
78614;SDS011;67937;52.488;20.952;2023-09-08T04:15:26;5.40;;;4.60;;
78614;SDS011;67937;52.488;20.952;2023-09-08T04:17:52;5.90;;;4.30;;
78614;SDS011;67937;52.488;20.952;2023-09-08T04:20:19;9.00;;;4.70;;
78614;SDS011;67937;52.488;20.952;2023-09-08T04:22:46;6.80;;;5.10;;
78614;SDS011;67937;52.488;20.952;2023-09-08T04:25:13;6.40;;;5.00;;
78614;SDS011;67937;52.488;20.952;2023-09-08T04:27:39;8.00;;;5.40;;
78614;SDS011;67937;52.488;20.952;2023-09-08T04:30:06;7.70;;;4.60;;
78614;SDS011;67937;52.488;20.952;2023-09-08T04:32:33;9.40;;;5.90;;
78614;SDS011;67937;52.488;20.952;2023-09-08T04:35:00;10.80;;;5.00;;
78614;SDS011;67937;52.488;20.952;2023-09-08T04:37:27;7.10;;;5.10;;
78614;SDS011;67937;52.488;20.952;2023-09-08T04:39:53;6.10;;;5.50;;
78614;SDS011;67937;52.488;20.952;2023-09-08T04:42:20;7.40;;;4.90;;
78614;SDS011;67937;52.488;20.952;2023-09-08T04:44:47;6.30;;;5.60;;
78614;SDS011;67937;52.488;20.952;2023-09-08T04:47:13;7.90;;;5.50;;
78614;SDS011;67937;52.488;20.952;2023-09-08T04:49:40;6.00;;;5.40;;
78614;SDS011;67937;52.488;20.952;2023-09-08T04:52:07;9.60;;;5.30;;
78614;SDS011;67937;52.488;20.952;2023-09-08T04:54:33;6.10;;;5.00;;
78614;SDS011;67937;52.488;20.952;2023-09-08T04:57:00;7.60;;;5.10;;
78614;SDS011;67937;52.488;20.952;2023-09-08T04:59:27;6.30;;;5.10;;
78614;SDS011;67937;52.488;20.952;2023-09-08T05:01:53;6.00;;;5.40;;
78614;SDS011;67937;52.488;20.952;2023-09-08T05:04:20;6.70;;;4.70;;
78614;SDS011;67937;52.488;20.952;2023-09-08T05:06:47;7.40;;;5.00;;
78614;SDS011;67937;52.488;20.952;2023-09-08T05:09:14;5.80;;;4.50;;
78614;SDS011;67937;52.488;20.952;2023-09-08T05:11:40;18.00;;;6.00;;
78614;SDS011;67937;52.488;20.952;2023-09-08T05:14:07;15.90;;;5.90;;
78614;SDS011;67937;52.488;20.952;2023-09-08T05:16:34;11.30;;;6.60;;
78614;SDS011;67937;52.488;20.952;2023-09-08T05:19:11;7.30;;;4.90;;
78614;SDS011;67937;52.488;20.952;2023-09-08T05:21:38;6.50;;;5.60;;
78614;SDS011;67937;52.488;20.952;2023-09-08T05:24:07;8.40;;;5.00;;
78614;SDS011;67937;52.488;20.952;2023-09-08T05:26:35;9.30;;;4.80;;
78614;SDS011;67937;52.488;20.952;2023-09-08T05:29:03;6.10;;;4.90;;
78614;SDS011;67937;52.488;20.952;2023-09-08T05:31:30;7.40;;;4.50;;
78614;SDS011;67937;52.488;20.952;2023-09-08T05:33:56;6.30;;;4.90;;
78614;SDS011;67937;52.488;20.952;2023-09-08T05:36:23;5.50;;;4.30;;
78614;SDS011;67937;52.488;20.952;2023-09-08T05:38:49;6.20;;;5.00;;
78614;SDS011;67937;52.488;20.952;2023-09-08T05:41:16;5.70;;;5.10;;
78614;SDS011;67937;52.488;20.952;2023-09-08T05:43:44;10.30;;;5.60;;
78614;SDS011;67937;52.488;20.952;2023-09-08T05:46:10;7.40;;;4.80;;
78614;SDS011;67937;52.488;20.952;2023-09-08T05:48:38;6.20;;;5.20;;
78614;SDS011;67937;52.488;20.952;2023-09-08T05:51:05;6.30;;;5.40;;
78614;SDS011;67937;52.488;20.952;2023-09-08T05:53:32;7.80;;;6.30;;
78614;SDS011;67937;52.488;20.952;2023-09-08T05:56:01;6.70;;;5.90;;
78614;SDS011;67937;52.488;20.952;2023-09-08T05:58:28;7.80;;;5.40;;
78614;SDS011;67937;52.488;20.952;2023-09-08T06:00:55;6.30;;;5.60;;
78614;SDS011;67937;52.488;20.952;2023-09-08T06:03:21;7.00;;;5.30;;
78614;SDS011;67937;52.488;20.952;2023-09-08T06:05:48;5.30;;;4.80;;
78614;SDS011;67937;52.488;20.952;2023-09-08T06:08:15;8.30;;;5.70;;
78614;SDS011;67937;52.488;20.952;2023-09-08T06:10:41;7.50;;;5.70;;
78614;SDS011;67937;52.488;20.952;2023-09-08T06:13:08;7.30;;;5.80;;
78614;SDS011;67937;52.488;20.952;2023-09-08T06:15:35;7.60;;;5.70;;
78614;SDS011;67937;52.488;20.952;2023-09-08T06:18:01;9.90;;;5.70;;
78614;SDS011;67937;52.488;20.952;2023-09-08T06:20:28;8.50;;;6.70;;
78614;SDS011;67937;52.488;20.952;2023-09-08T06:22:55;7.50;;;6.30;;
78614;SDS011;67937;52.488;20.952;2023-09-08T06:25:22;6.60;;;5.70;;
78614;SDS011;67937;52.488;20.952;2023-09-08T06:27:49;8.70;;;6.00;;
78614;SDS011;67937;52.488;20.952;2023-09-08T06:30:15;6.70;;;6.00;;
78614;SDS011;67937;52.488;20.952;2023-09-08T06:32:43;7.90;;;6.10;;
78614;SDS011;67937;52.488;20.952;2023-09-08T06:35:10;8.00;;;6.20;;
78614;SDS011;67937;52.488;20.952;2023-09-08T06:37:40;8.50;;;6.00;;
78614;SDS011;67937;52.488;20.952;2023-09-08T06:40:06;9.50;;;5.70;;
78614;SDS011;67937;52.488;20.952;2023-09-08T06:42:33;8.10;;;5.80;;
78614;SDS011;67937;52.488;20.952;2023-09-08T06:45:01;9.00;;;6.40;;
78614;SDS011;67937;52.488;20.952;2023-09-08T06:47:28;6.20;;;5.40;;
78614;SDS011;67937;52.488;20.952;2023-09-08T06:49:54;7.20;;;6.30;;
78614;SDS011;67937;52.488;20.952;2023-09-08T06:52:21;7.50;;;5.90;;
78614;SDS011;67937;52.488;20.952;2023-09-08T06:54:48;8.20;;;6.50;;
78614;SDS011;67937;52.488;20.952;2023-09-08T06:57:14;7.00;;;6.10;;
78614;SDS011;67937;52.488;20.952;2023-09-08T06:59:43;8.30;;;6.10;;
78614;SDS011;67937;52.488;20.952;2023-09-08T07:02:10;9.70;;;5.70;;
78614;SDS011;67937;52.488;20.952;2023-09-08T07:04:37;8.80;;;6.40;;
78614;SDS011;67937;52.488;20.952;2023-09-08T07:07:03;8.70;;;6.60;;
78614;SDS011;67937;52.488;20.952;2023-09-08T07:09:34;12.80;;;7.30;;
78614;SDS011;67937;52.488;20.952;2023-09-08T07:12:01;7.90;;;6.70;;
78614;SDS011;67937;52.488;20.952;2023-09-08T07:14:27;8.60;;;6.20;;
78614;SDS011;67937;52.488;20.952;2023-09-08T07:16:54;6.40;;;5.60;;
78614;SDS011;67937;52.488;20.952;2023-09-08T07:19:21;6.70;;;5.70;;
78614;SDS011;67937;52.488;20.952;2023-09-08T07:21:47;9.90;;;6.10;;
78614;SDS011;67937;52.488;20.952;2023-09-08T07:24:14;9.40;;;5.70;;
78614;SDS011;67937;52.488;20.952;2023-09-08T07:26:40;8.40;;;6.30;;
78614;SDS011;67937;52.488;20.952;2023-09-08T07:29:07;11.50;;;6.40;;
78614;SDS011;67937;52.488;20.952;2023-09-08T07:31:34;10.20;;;6.00;;
78614;SDS011;67937;52.488;20.952;2023-09-08T07:34:01;9.00;;;6.10;;
78614;SDS011;67937;52.488;20.952;2023-09-08T07:36:27;8.90;;;6.30;;
78614;SDS011;67937;52.488;20.952;2023-09-08T07:38:54;6.80;;;5.60;;
78614;SDS011;67937;52.488;20.952;2023-09-08T07:41:21;8.60;;;6.40;;
78614;SDS011;67937;52.488;20.952;2023-09-08T07:43:47;7.20;;;6.00;;
78614;SDS011;67937;52.488;20.952;2023-09-08T07:46:14;9.00;;;6.70;;
78614;SDS011;67937;52.488;20.952;2023-09-08T07:48:40;7.00;;;5.40;;
78614;SDS011;67937;52.488;20.952;2023-09-08T07:51:07;9.10;;;5.70;;
78614;SDS011;67937;52.488;20.952;2023-09-08T07:53:34;7.50;;;5.90;;
78614;SDS011;67937;52.488;20.952;2023-09-08T07:56:00;6.70;;;5.30;;
78614;SDS011;67937;52.488;20.952;2023-09-08T07:58:27;7.60;;;6.20;;
78614;SDS011;67937;52.488;20.952;2023-09-08T08:00:54;7.00;;;4.70;;
78614;SDS011;67937;52.488;20.952;2023-09-08T08:03:21;8.10;;;5.50;;
78614;SDS011;67937;52.488;20.952;2023-09-08T08:05:48;7.70;;;5.70;;
78614;SDS011;67937;52.488;20.952;2023-09-08T08:08:15;8.10;;;5.70;;
78614;SDS011;67937;52.488;20.952;2023-09-08T08:10:41;8.10;;;5.70;;
78614;SDS011;67937;52.488;20.952;2023-09-08T08:13:08;11.90;;;5.70;;
78614;SDS011;67937;52.488;20.952;2023-09-08T08:15:38;8.60;;;5.50;;
78614;SDS011;67937;52.488;20.952;2023-09-08T08:18:08;8.40;;;5.50;;
78614;SDS011;67937;52.488;20.952;2023-09-08T08:20:36;8.20;;;5.70;;
78614;SDS011;67937;52.488;20.952;2023-09-08T08:23:03;6.80;;;5.40;;
78614;SDS011;67937;52.488;20.952;2023-09-08T08:25:31;7.40;;;5.80;;
78614;SDS011;67937;52.488;20.952;2023-09-08T08:27:58;13.10;;;5.90;;
78614;SDS011;67937;52.488;20.952;2023-09-08T08:30:26;10.90;;;6.10;;
78614;SDS011;67937;52.488;20.952;2023-09-08T08:32:54;13.10;;;6.30;;
78614;SDS011;67937;52.488;20.952;2023-09-08T08:35:20;8.50;;;5.60;;
78614;SDS011;67937;52.488;20.952;2023-09-08T08:37:47;8.50;;;5.30;;
78614;SDS011;67937;52.488;20.952;2023-09-08T08:40:14;11.80;;;5.70;;
78614;SDS011;67937;52.488;20.952;2023-09-08T08:42:41;6.60;;;5.50;;
78614;SDS011;67937;52.488;20.952;2023-09-08T08:45:08;9.40;;;6.10;;
78614;SDS011;67937;52.488;20.952;2023-09-08T08:47:36;7.80;;;6.10;;
78614;SDS011;67937;52.488;20.952;2023-09-08T08:50:02;7.80;;;6.20;;
78614;SDS011;67937;52.488;20.952;2023-09-08T08:52:30;7.90;;;6.30;;
78614;SDS011;67937;52.488;20.952;2023-09-08T08:57:22;10.10;;;6.60;;
78614;SDS011;67937;52.488;20.952;2023-09-08T08:59:49;6.60;;;5.60;;
78614;SDS011;67937;52.488;20.952;2023-09-08T09:02:17;8.90;;;6.10;;
78614;SDS011;67937;52.488;20.952;2023-09-08T09:04:45;5.90;;;5.10;;
78614;SDS011;67937;52.488;20.952;2023-09-08T09:07:12;8.70;;;6.30;;
78614;SDS011;67937;52.488;20.952;2023-09-08T09:09:41;12.50;;;6.40;;
78614;SDS011;67937;52.488;20.952;2023-09-08T09:12:07;7.70;;;5.80;;
78614;SDS011;67937;52.488;20.952;2023-09-08T09:14:34;6.30;;;5.70;;
78614;SDS011;67937;52.488;20.952;2023-09-08T09:17:01;7.70;;;5.70;;
78614;SDS011;67937;52.488;20.952;2023-09-08T09:19:31;9.00;;;6.20;;
78614;SDS011;67937;52.488;20.952;2023-09-08T09:21:59;7.10;;;5.50;;
78614;SDS011;67937;52.488;20.952;2023-09-08T09:27:07;7.20;;;6.00;;
78614;SDS011;67937;52.488;20.952;2023-09-08T09:29:43;7.90;;;6.20;;
78614;SDS011;67937;52.488;20.952;2023-09-08T09:32:12;6.10;;;5.50;;
78614;SDS011;67937;52.488;20.952;2023-09-08T09:34:52;8.10;;;6.00;;
78614;SDS011;67937;52.488;20.952;2023-09-08T09:37:20;5.50;;;4.70;;
78614;SDS011;67937;52.488;20.952;2023-09-08T09:39:50;5.70;;;5.20;;
78614;SDS011;67937;52.488;20.952;2023-09-08T09:42:18;10.30;;;5.90;;
78614;SDS011;67937;52.488;20.952;2023-09-08T09:44:47;5.10;;;4.60;;
78614;SDS011;67937;52.488;20.952;2023-09-08T09:47:14;6.40;;;5.80;;
78614;SDS011;67937;52.488;20.952;2023-09-08T09:49:45;5.60;;;5.00;;
78614;SDS011;67937;52.488;20.952;2023-09-08T09:52:13;5.30;;;4.50;;
78614;SDS011;67937;52.488;20.952;2023-09-08T09:54:52;6.50;;;4.70;;
78614;SDS011;67937;52.488;20.952;2023-09-08T09:57:21;4.50;;;4.10;;
78614;SDS011;67937;52.488;20.952;2023-09-08T09:59:48;5.00;;;3.90;;
78614;SDS011;67937;52.488;20.952;2023-09-08T10:02:16;4.90;;;4.50;;
78614;SDS011;67937;52.488;20.952;2023-09-08T10:04:47;4.50;;;3.70;;
78614;SDS011;67937;52.488;20.952;2023-09-08T10:07:15;5.80;;;4.50;;
78614;SDS011;67937;52.488;20.952;2023-09-08T10:09:43;5.40;;;4.90;;
78614;SDS011;67937;52.488;20.952;2023-09-08T10:12:11;6.00;;;4.80;;
78614;SDS011;67937;52.488;20.952;2023-09-08T10:14:41;5.30;;;4.80;;
78614;SDS011;67937;52.488;20.952;2023-09-08T10:17:12;6.50;;;4.30;;
78614;SDS011;67937;52.488;20.952;2023-09-08T10:19:44;6.20;;;4.90;;
78614;SDS011;67937;52.488;20.952;2023-09-08T10:22:19;4.40;;;4.00;;
78614;SDS011;67937;52.488;20.952;2023-09-08T10:24:49;7.80;;;4.90;;
78614;SDS011;67937;52.488;20.952;2023-09-08T10:27:17;5.10;;;4.60;;
78614;SDS011;67937;52.488;20.952;2023-09-08T10:29:46;5.20;;;4.70;;
78614;SDS011;67937;52.488;20.952;2023-09-08T10:32:13;4.90;;;4.20;;
78614;SDS011;67937;52.488;20.952;2023-09-08T10:34:41;6.50;;;4.10;;
78614;SDS011;67937;52.488;20.952;2023-09-08T10:37:22;5.10;;;3.90;;
78614;SDS011;67937;52.488;20.952;2023-09-08T10:39:51;6.50;;;4.60;;
78614;SDS011;67937;52.488;20.952;2023-09-08T10:47:30;8.20;;;4.00;;
78614;SDS011;67937;52.488;20.952;2023-09-08T10:50:00;5.00;;;4.20;;
78614;SDS011;67937;52.488;20.952;2023-09-08T10:52:30;6.80;;;4.20;;
78614;SDS011;67937;52.488;20.952;2023-09-08T10:54:59;4.60;;;4.20;;
78614;SDS011;67937;52.488;20.952;2023-09-08T10:57:27;4.80;;;4.30;;
78614;SDS011;67937;52.488;20.952;2023-09-08T10:59:57;4.90;;;4.20;;
78614;SDS011;67937;52.488;20.952;2023-09-08T11:02:36;4.60;;;4.20;;
78614;SDS011;67937;52.488;20.952;2023-09-08T11:05:14;4.60;;;4.20;;
78614;SDS011;67937;52.488;20.952;2023-09-08T11:07:42;6.30;;;4.40;;
78614;SDS011;67937;52.488;20.952;2023-09-08T11:10:10;4.60;;;4.20;;
78614;SDS011;67937;52.488;20.952;2023-09-08T11:12:38;4.60;;;3.90;;
78614;SDS011;67937;52.488;20.952;2023-09-08T11:15:06;5.50;;;4.00;;
78614;SDS011;67937;52.488;20.952;2023-09-08T11:17:35;4.90;;;4.60;;
78614;SDS011;67937;52.488;20.952;2023-09-08T11:20:05;4.50;;;4.10;;
78614;SDS011;67937;52.488;20.952;2023-09-08T11:22:35;5.00;;;4.50;;
78614;SDS011;67937;52.488;20.952;2023-09-08T11:25:02;4.60;;;3.90;;
78614;SDS011;67937;52.488;20.952;2023-09-08T11:27:30;3.60;;;3.30;;
78614;SDS011;67937;52.488;20.952;2023-09-08T11:29:57;4.50;;;4.10;;
78614;SDS011;67937;52.488;20.952;2023-09-08T11:32:24;4.30;;;3.90;;
78614;SDS011;67937;52.488;20.952;2023-09-08T11:35:01;4.20;;;3.50;;
78614;SDS011;67937;52.488;20.952;2023-09-08T11:37:31;3.90;;;3.60;;
78614;SDS011;67937;52.488;20.952;2023-09-08T11:40:00;4.70;;;4.30;;
78614;SDS011;67937;52.488;20.952;2023-09-08T11:42:28;4.20;;;3.90;;
78614;SDS011;67937;52.488;20.952;2023-09-08T11:44:56;5.70;;;4.10;;
78614;SDS011;67937;52.488;20.952;2023-09-08T11:47:23;5.30;;;3.90;;
78614;SDS011;67937;52.488;20.952;2023-09-08T11:49:52;4.30;;;3.90;;
78614;SDS011;67937;52.488;20.952;2023-09-08T11:52:22;4.60;;;4.20;;
78614;SDS011;67937;52.488;20.952;2023-09-08T11:54:50;5.60;;;4.40;;
78614;SDS011;67937;52.488;20.952;2023-09-08T11:57:18;4.20;;;3.50;;
78614;SDS011;67937;52.488;20.952;2023-09-08T11:59:45;5.30;;;3.90;;
78614;SDS011;67937;52.488;20.952;2023-09-08T12:02:14;4.00;;;3.70;;
78614;SDS011;67937;52.488;20.952;2023-09-08T12:04:41;5.40;;;3.60;;
78614;SDS011;67937;52.488;20.952;2023-09-08T12:07:12;3.90;;;3.60;;
78614;SDS011;67937;52.488;20.952;2023-09-08T12:09:42;5.00;;;4.50;;
78614;SDS011;67937;52.488;20.952;2023-09-08T12:12:12;3.90;;;3.60;;
78614;SDS011;67937;52.488;20.952;2023-09-08T12:17:08;4.20;;;3.90;;
78614;SDS011;67937;52.488;20.952;2023-09-08T12:19:35;4.10;;;3.70;;
78614;SDS011;67937;52.488;20.952;2023-09-08T12:22:03;4.20;;;3.90;;
78614;SDS011;67937;52.488;20.952;2023-09-08T12:24:55;4.40;;;3.70;;
78614;SDS011;67937;52.488;20.952;2023-09-08T12:27:24;4.70;;;4.30;;
78614;SDS011;67937;52.488;20.952;2023-09-08T12:32:20;4.50;;;4.10;;
78614;SDS011;67937;52.488;20.952;2023-09-08T12:34:47;5.30;;;3.80;;
78614;SDS011;67937;52.488;20.952;2023-09-08T12:37:13;4.80;;;4.00;;
78614;SDS011;67937;52.488;20.952;2023-09-08T12:39:40;5.20;;;4.70;;
78614;SDS011;67937;52.488;20.952;2023-09-08T12:42:07;5.80;;;3.90;;
78614;SDS011;67937;52.488;20.952;2023-09-08T12:44:34;6.00;;;4.10;;
78614;SDS011;67937;52.488;20.952;2023-09-08T12:47:00;5.40;;;3.60;;
78614;SDS011;67937;52.488;20.952;2023-09-08T12:49:28;4.30;;;4.00;;
78614;SDS011;67937;52.488;20.952;2023-09-08T12:51:55;4.70;;;4.20;;
78614;SDS011;67937;52.488;20.952;2023-09-08T12:54:21;4.70;;;4.30;;
78614;SDS011;67937;52.488;20.952;2023-09-08T12:56:48;4.50;;;4.10;;
78614;SDS011;67937;52.488;20.952;2023-09-08T12:59:16;5.00;;;4.20;;
78614;SDS011;67937;52.488;20.952;2023-09-08T13:01:43;5.80;;;4.50;;
78614;SDS011;67937;52.488;20.952;2023-09-08T13:04:10;4.30;;;3.90;;
78614;SDS011;67937;52.488;20.952;2023-09-08T13:06:37;4.00;;;3.70;;
78614;SDS011;67937;52.488;20.952;2023-09-08T13:09:04;4.20;;;3.90;;
78614;SDS011;67937;52.488;20.952;2023-09-08T13:11:31;5.30;;;3.50;;
78614;SDS011;67937;52.488;20.952;2023-09-08T13:13:58;4.20;;;3.80;;
78614;SDS011;67937;52.488;20.952;2023-09-08T13:16:24;4.70;;;4.10;;
78614;SDS011;67937;52.488;20.952;2023-09-08T13:18:51;7.20;;;5.00;;
78614;SDS011;67937;52.488;20.952;2023-09-08T13:21:18;4.70;;;3.50;;
78614;SDS011;67937;52.488;20.952;2023-09-08T13:23:45;7.90;;;4.50;;
78614;SDS011;67937;52.488;20.952;2023-09-08T13:26:11;5.20;;;4.50;;
78614;SDS011;67937;52.488;20.952;2023-09-08T13:28:38;5.40;;;3.90;;
78614;SDS011;67937;52.488;20.952;2023-09-08T13:31:05;6.70;;;4.20;;
78614;SDS011;67937;52.488;20.952;2023-09-08T13:33:32;4.40;;;4.00;;
78614;SDS011;67937;52.488;20.952;2023-09-08T13:35:59;4.40;;;4.00;;
78614;SDS011;67937;52.488;20.952;2023-09-08T13:38:26;4.20;;;3.90;;
78614;SDS011;67937;52.488;20.952;2023-09-08T13:40:52;4.90;;;3.90;;
78614;SDS011;67937;52.488;20.952;2023-09-08T13:43:19;4.80;;;3.30;;
78614;SDS011;67937;52.488;20.952;2023-09-08T13:45:46;5.80;;;3.70;;
78614;SDS011;67937;52.488;20.952;2023-09-08T13:48:13;5.90;;;3.60;;
78614;SDS011;67937;52.488;20.952;2023-09-08T13:50:40;5.80;;;3.90;;
78614;SDS011;67937;52.488;20.952;2023-09-08T13:53:07;6.00;;;3.80;;
78614;SDS011;67937;52.488;20.952;2023-09-08T13:55:33;5.90;;;4.20;;
78614;SDS011;67937;52.488;20.952;2023-09-08T13:58:00;4.40;;;3.80;;
78614;SDS011;67937;52.488;20.952;2023-09-08T14:00:27;4.80;;;4.30;;
78614;SDS011;67937;52.488;20.952;2023-09-08T14:02:54;4.10;;;3.80;;
78614;SDS011;67937;52.488;20.952;2023-09-08T14:05:21;4.30;;;3.70;;
78614;SDS011;67937;52.488;20.952;2023-09-08T14:07:47;5.70;;;3.70;;
78614;SDS011;67937;52.488;20.952;2023-09-08T14:10:14;4.30;;;3.80;;
78614;SDS011;67937;52.488;20.952;2023-09-08T14:12:41;3.40;;;3.00;;
78614;SDS011;67937;52.488;20.952;2023-09-08T14:15:08;4.90;;;3.70;;
78614;SDS011;67937;52.488;20.952;2023-09-08T14:17:35;5.10;;;3.50;;
78614;SDS011;67937;52.488;20.952;2023-09-08T14:20:01;6.40;;;3.70;;
78614;SDS011;67937;52.488;20.952;2023-09-08T14:22:29;5.10;;;3.80;;
78614;SDS011;67937;52.488;20.952;2023-09-08T14:24:56;4.10;;;3.40;;
78614;SDS011;67937;52.488;20.952;2023-09-08T14:27:23;4.60;;;4.20;;
78614;SDS011;67937;52.488;20.952;2023-09-08T14:29:49;4.10;;;3.70;;
78614;SDS011;67937;52.488;20.952;2023-09-08T14:32:16;6.40;;;3.90;;
78614;SDS011;67937;52.488;20.952;2023-09-08T14:34:43;4.70;;;3.70;;
78614;SDS011;67937;52.488;20.952;2023-09-08T14:37:09;4.00;;;3.70;;
78614;SDS011;67937;52.488;20.952;2023-09-08T14:39:36;3.90;;;3.50;;
78614;SDS011;67937;52.488;20.952;2023-09-08T14:42:03;4.30;;;3.80;;
78614;SDS011;67937;52.488;20.952;2023-09-08T14:44:30;4.90;;;3.60;;
78614;SDS011;67937;52.488;20.952;2023-09-08T14:46:57;4.50;;;4.10;;
78614;SDS011;67937;52.488;20.952;2023-09-08T14:49:24;5.20;;;4.00;;
78614;SDS011;67937;52.488;20.952;2023-09-08T14:51:50;4.60;;;3.70;;
78614;SDS011;67937;52.488;20.952;2023-09-08T14:54:17;4.40;;;3.90;;
78614;SDS011;67937;52.488;20.952;2023-09-08T14:56:44;4.10;;;3.70;;